PWSweather.com
Personal Weather Stations
Station Observations
KPAAUBUR15
Lake Wynonah, Auburn, PA 17922

Lake WynonahAuburn, PA 17922

Lat: 40.582723, Lon: -76.193106

Elevation: 724

Station Type: Davis Vantage Pro2

http://WynonahWeather.com

High Low Average
Temperature 31.6°F-0.2°C 24.3°F-4.3°C 27.1°F-2.7°C
Dew Point 30.8°F-0.7°C 17.4°F-8.1°C 23.4°F-4.8°C
Winds 6.9 mph 11.1 kmh Calm Calm 1.0 mph SE1.6 kmh SE
Wind Gusts 11.5 mph18.5 kmh -- 2.0 mph3.2 kmh
Humidity 97% 66% 86%
Pressure 30.58 in1035.6 mb 30.02 in1016.6 mb -
Precipitation 0.02 in0.5 mm - -
Hour Temp Dew Point Humidity Winds Wind Gusts Pressure Precip Precip Rate Daily Precip Total
12:00 AM 25.7°F-3.5°C 18.8°F-7.3°C 75% Calm Calm -- 30.56 in1034.9 mb - 0.00 in0.0 mm 0.00 in0.0 mm
12:05 AM 25.6°F-3.6°C 18.8°F-7.3°C 75% Calm Calm -- 30.56 in1034.9 mb - 0.00 in0.0 mm 0.00 in0.0 mm
12:10 AM 25.7°F-3.5°C 19.2°F-7.1°C 76% Calm Calm -- 30.56 in1034.9 mb - 0.00 in0.0 mm 0.00 in0.0 mm
12:15 AM 25.7°F-3.5°C 18.8°F-7.3°C 75% Calm Calm -- 30.56 in1034.9 mb - 0.00 in0.0 mm 0.00 in0.0 mm
12:20 AM 25.7°F-3.5°C 19.2°F-7.1°C 76% Calm Calm -- 30.55 in1034.5 mb - 0.00 in0.0 mm 0.00 in0.0 mm
12:25 AM 25.8°F-3.4°C 19.6°F-6.9°C 77% Calm Calm -- 30.55 in1034.5 mb - 0.00 in0.0 mm 0.00 in0.0 mm
12:30 AM 25.8°F-3.4°C 19.2°F-7.1°C 76% Calm Calm -- 30.55 in1034.5 mb - 0.00 in0.0 mm 0.00 in0.0 mm
12:35 AM 25.7°F-3.5°C 18.9°F-7.3°C 75% Calm Calm -- 30.55 in1034.5 mb - 0.00 in0.0 mm 0.00 in0.0 mm
12:40 AM 25.7°F-3.5°C 18.9°F-7.3°C 75% Calm Calm -- 30.55 in1034.5 mb - 0.00 in0.0 mm 0.00 in0.0 mm
12:45 AM 25.7°F-3.5°C 18.5°F-7.5°C 74% Calm Calm -- 30.55 in1034.5 mb - 0.00 in0.0 mm 0.00 in0.0 mm
12:50 AM 25.6°F-3.6°C 18.5°F-7.5°C 74% Calm Calm -- 30.55 in1034.5 mb - 0.00 in0.0 mm 0.00 in0.0 mm
12:55 AM 25.5°F-3.6°C 18.7°F-7.4°C 75% Calm Calm -- 30.55 in1034.5 mb - 0.00 in0.0 mm 0.00 in0.0 mm
01:00 AM 25.5°F-3.6°C 18.7°F-7.4°C 75% Calm Calm -- 30.54 in1034.2 mb - 0.00 in0.0 mm 0.00 in0.0 mm
01:05 AM 25.5°F-3.6°C 19.0°F-7.2°C 76% Calm Calm -- 30.55 in1034.5 mb - 0.00 in0.0 mm 0.00 in0.0 mm
01:10 AM 25.5°F-3.6°C 19.0°F-7.2°C 76% Calm Calm -- 30.55 in1034.5 mb - 0.00 in0.0 mm 0.00 in0.0 mm
01:15 AM 25.5°F-3.6°C 19.0°F-7.2°C 76% Calm Calm -- 30.55 in1034.5 mb - 0.00 in0.0 mm 0.00 in0.0 mm
01:20 AM 25.4°F-3.7°C 17.9°F-7.8°C 73% Calm Calm -- 30.56 in1034.9 mb - 0.00 in0.0 mm 0.00 in0.0 mm
01:25 AM 25.4°F-3.7°C 18.3°F-7.6°C 74% Calm Calm -- 30.56 in1034.9 mb - 0.00 in0.0 mm 0.00 in0.0 mm
01:30 AM 25.5°F-3.6°C 19.0°F-7.2°C 76% Calm Calm -- 30.56 in1034.9 mb - 0.00 in0.0 mm 0.00 in0.0 mm
01:35 AM 25.4°F-3.7°C 18.9°F-7.3°C 76% Calm Calm -- 30.56 in1034.9 mb - 0.00 in0.0 mm 0.00 in0.0 mm
01:40 AM 25.4°F-3.7°C 18.9°F-7.3°C 76% Calm Calm -- 30.56 in1034.9 mb - 0.00 in0.0 mm 0.00 in0.0 mm
01:45 AM 25.4°F-3.7°C 18.9°F-7.3°C 76% Calm Calm -- 30.56 in1034.9 mb - 0.00 in0.0 mm 0.00 in0.0 mm
01:50 AM 25.5°F-3.6°C 19.3°F-7.1°C 77% Calm Calm -- 30.56 in1034.9 mb - 0.00 in0.0 mm 0.00 in0.0 mm
01:55 AM 25.7°F-3.5°C 19.5°F-6.9°C 77% Calm Calm -- 30.55 in1034.5 mb - 0.00 in0.0 mm 0.00 in0.0 mm
02:00 AM 25.8°F-3.4°C 19.0°F-7.2°C 75% Calm Calm -- 30.56 in1034.9 mb - 0.00 in0.0 mm 0.00 in0.0 mm
02:05 AM 25.8°F-3.4°C 19.0°F-7.2°C 75% Calm Calm -- 30.56 in1034.9 mb - 0.00 in0.0 mm 0.00 in0.0 mm
02:10 AM 25.8°F-3.4°C 19.3°F-7.1°C 76% Calm Calm -- 30.57 in1035.2 mb - 0.00 in0.0 mm 0.00 in0.0 mm
02:15 AM 25.9°F-3.4°C 19.7°F-6.8°C 77% Calm Calm -- 30.57 in1035.2 mb - 0.00 in0.0 mm 0.00 in0.0 mm
02:20 AM 25.8°F-3.4°C 19.3°F-7.1°C 76% Calm Calm -- 30.56 in1034.9 mb - 0.00 in0.0 mm 0.00 in0.0 mm
02:25 AM 25.8°F-3.4°C 19.3°F-7.1°C 76% Calm Calm -- 30.57 in1035.2 mb - 0.00 in0.0 mm 0.00 in0.0 mm
02:30 AM 25.7°F-3.5°C 18.9°F-7.3°C 75% Calm Calm -- 30.57 in1035.2 mb - 0.00 in0.0 mm 0.00 in0.0 mm
02:35 AM 25.7°F-3.5°C 18.2°F-7.7°C 73% Calm Calm -- 30.57 in1035.2 mb - 0.00 in0.0 mm 0.00 in0.0 mm
02:40 AM 25.7°F-3.5°C 18.6°F-7.4°C 74% Calm Calm -- 30.58 in1035.6 mb - 0.00 in0.0 mm 0.00 in0.0 mm
02:45 AM 25.7°F-3.5°C 18.6°F-7.4°C 74% Calm Calm -- 30.57 in1035.2 mb - 0.00 in0.0 mm 0.00 in0.0 mm
02:50 AM 25.7°F-3.5°C 18.5°F-7.5°C 74% Calm Calm -- 30.57 in1035.2 mb - 0.00 in0.0 mm 0.00 in0.0 mm
02:55 AM 25.6°F-3.6°C 18.5°F-7.5°C 74% Calm Calm -- 30.57 in1035.2 mb - 0.00 in0.0 mm 0.00 in0.0 mm
03:00 AM 25.7°F-3.5°C 19.5°F-6.9°C 77% Calm Calm -- 30.57 in1035.2 mb - 0.00 in0.0 mm 0.00 in0.0 mm
03:05 AM 25.8°F-3.4°C 19.3°F-7.1°C 76% Calm Calm -- 30.57 in1035.2 mb - 0.00 in0.0 mm 0.00 in0.0 mm
03:10 AM 25.8°F-3.4°C 19.3°F-7.1°C 76% Calm Calm -- 30.57 in1035.2 mb - 0.00 in0.0 mm 0.00 in0.0 mm
03:15 AM 25.7°F-3.5°C 19.2°F-7.1°C 76% Calm Calm -- 30.58 in1035.6 mb - 0.00 in0.0 mm 0.00 in0.0 mm
03:20 AM 25.7°F-3.5°C 19.2°F-7.1°C 76% Calm Calm -- 30.58 in1035.6 mb - 0.00 in0.0 mm 0.00 in0.0 mm
03:25 AM 25.6°F-3.6°C 19.1°F-7.2°C 76% Calm Calm -- 30.58 in1035.6 mb - 0.00 in0.0 mm 0.00 in0.0 mm
03:30 AM 25.6°F-3.6°C 19.4°F-7.0°C 77% Calm Calm -- 30.58 in1035.6 mb - 0.00 in0.0 mm 0.00 in0.0 mm
03:35 AM 25.6°F-3.6°C 19.4°F-7.0°C 77% Calm Calm -- 30.58 in1035.6 mb - 0.00 in0.0 mm 0.00 in0.0 mm
03:40 AM 25.6°F-3.6°C 19.1°F-7.2°C 76% Calm Calm -- 30.57 in1035.2 mb - 0.00 in0.0 mm 0.00 in0.0 mm
03:45 AM 25.6°F-3.6°C 19.1°F-7.2°C 76% Calm Calm -- 30.57 in1035.2 mb - 0.00 in0.0 mm 0.00 in0.0 mm
03:50 AM 25.6°F-3.6°C 19.1°F-7.2°C 76% Calm Calm -- 30.57 in1035.2 mb - 0.00 in0.0 mm 0.00 in0.0 mm
03:55 AM 25.6°F-3.6°C 19.1°F-7.2°C 76% Calm Calm -- 30.57 in1035.2 mb - 0.00 in0.0 mm 0.00 in0.0 mm
04:00 AM 25.6°F-3.6°C 19.1°F-7.2°C 76% Calm Calm -- 30.57 in1035.2 mb - 0.00 in0.0 mm 0.00 in0.0 mm
04:05 AM 25.5°F-3.6°C 19.0°F-7.2°C 76% Calm Calm -- 30.56 in1034.9 mb - 0.00 in0.0 mm 0.00 in0.0 mm
04:10 AM 25.5°F-3.6°C 18.7°F-7.4°C 75% Calm Calm -- 30.56 in1034.9 mb - 0.00 in0.0 mm 0.00 in0.0 mm
04:15 AM 25.5°F-3.6°C 18.7°F-7.4°C 75% Calm Calm -- 30.56 in1034.9 mb - 0.00 in0.0 mm 0.00 in0.0 mm
04:20 AM 25.5°F-3.6°C 18.7°F-7.4°C 75% Calm Calm -- 30.57 in1035.2 mb - 0.00 in0.0 mm 0.00 in0.0 mm
04:25 AM 25.4°F-3.7°C 18.9°F-7.3°C 76% Calm Calm -- 30.56 in1034.9 mb - 0.00 in0.0 mm 0.00 in0.0 mm
04:30 AM 25.4°F-3.7°C 18.6°F-7.4°C 75% Calm Calm -- 30.56 in1034.9 mb - 0.00 in0.0 mm 0.00 in0.0 mm
04:35 AM 25.5°F-3.6°C 18.3°F-7.6°C 74% Calm Calm -- 30.55 in1034.5 mb - 0.00 in0.0 mm 0.00 in0.0 mm
04:40 AM 25.5°F-3.6°C 18.3°F-7.6°C 74% Calm Calm -- 30.55 in1034.5 mb - 0.00 in0.0 mm 0.00 in0.0 mm
04:45 AM 25.4°F-3.7°C 18.3°F-7.6°C 74% Calm Calm -- 30.55 in1034.5 mb - 0.00 in0.0 mm 0.00 in0.0 mm
04:50 AM 25.4°F-3.7°C 17.9°F-7.8°C 73% Calm Calm -- 30.55 in1034.5 mb - 0.00 in0.0 mm 0.00 in0.0 mm
04:55 AM 25.5°F-3.6°C 18.0°F-7.8°C 73% Calm Calm -- 30.55 in1034.5 mb - 0.00 in0.0 mm 0.00 in0.0 mm
05:00 AM 25.6°F-3.6°C 18.2°F-7.7°C 73% Calm Calm -- 30.55 in1034.5 mb - 0.00 in0.0 mm 0.00 in0.0 mm
05:05 AM 25.8°F-3.4°C 18.7°F-7.4°C 74% Calm Calm -- 30.54 in1034.2 mb - 0.00 in0.0 mm 0.00 in0.0 mm
05:10 AM 25.8°F-3.4°C 18.3°F-7.6°C 73% Calm Calm -- 30.55 in1034.5 mb - 0.00 in0.0 mm 0.00 in0.0 mm
05:15 AM 25.8°F-3.4°C 18.7°F-7.4°C 74% Calm Calm -- 30.55 in1034.5 mb - 0.00 in0.0 mm 0.00 in0.0 mm
05:20 AM 25.8°F-3.4°C 19.0°F-7.2°C 75% Calm Calm -- 30.54 in1034.2 mb - 0.00 in0.0 mm 0.00 in0.0 mm
05:25 AM 25.8°F-3.4°C 18.7°F-7.4°C 74% Calm Calm -- 30.55 in1034.5 mb - 0.00 in0.0 mm 0.00 in0.0 mm
05:30 AM 25.8°F-3.4°C 18.7°F-7.4°C 74% Calm Calm 2.3 mph3.7 kmh 30.55 in1034.5 mb - 0.00 in0.0 mm 0.00 in0.0 mm
05:35 AM 25.7°F-3.5°C 18.6°F-7.4°C 74% Calm Calm -- 30.54 in1034.2 mb - 0.00 in0.0 mm 0.00 in0.0 mm
05:40 AM 25.7°F-3.5°C 18.9°F-7.3°C 75% Calm Calm -- 30.53 in1033.9 mb - 0.00 in0.0 mm 0.00 in0.0 mm
05:45 AM 25.7°F-3.5°C 18.6°F-7.4°C 74% 2.3 mph NE3.7 kmh NE 3.5 mph5.6 kmh 30.53 in1033.9 mb - 0.00 in0.0 mm 0.00 in0.0 mm
05:50 AM 25.7°F-3.5°C 18.9°F-7.3°C 75% 1.2 mph NE1.9 kmh NE 3.5 mph5.6 kmh 30.52 in1033.5 mb - 0.00 in0.0 mm 0.00 in0.0 mm
05:55 AM 25.7°F-3.5°C 18.9°F-7.3°C 75% Calm Calm 2.3 mph3.7 kmh 30.52 in1033.5 mb - 0.00 in0.0 mm 0.00 in0.0 mm
06:00 AM 25.7°F-3.5°C 19.2°F-7.1°C 76% 2.3 mph NE3.7 kmh NE 2.3 mph3.7 kmh 30.52 in1033.5 mb - 0.00 in0.0 mm 0.00 in0.0 mm
06:05 AM 25.8°F-3.4°C 19.3°F-7.1°C 76% 1.2 mph NE1.9 kmh NE 3.5 mph5.6 kmh 30.53 in1033.9 mb - 0.00 in0.0 mm 0.00 in0.0 mm
06:10 AM 25.8°F-3.4°C 19.3°F-7.1°C 76% Calm Calm -- 30.53 in1033.9 mb - 0.00 in0.0 mm 0.00 in0.0 mm
06:15 AM 25.8°F-3.4°C 19.3°F-7.1°C 76% Calm Calm -- 30.53 in1033.9 mb - 0.00 in0.0 mm 0.00 in0.0 mm
06:20 AM 25.8°F-3.4°C 19.0°F-7.2°C 75% Calm Calm -- 30.53 in1033.9 mb - 0.00 in0.0 mm 0.00 in0.0 mm
06:25 AM 25.8°F-3.4°C 19.0°F-7.2°C 75% Calm Calm -- 30.53 in1033.9 mb - 0.00 in0.0 mm 0.00 in0.0 mm
06:30 AM 25.8°F-3.4°C 19.0°F-7.2°C 75% Calm Calm -- 30.52 in1033.5 mb - 0.00 in0.0 mm 0.00 in0.0 mm
06:35 AM 25.9°F-3.4°C 19.1°F-7.2°C 75% 3.5 mph NE5.6 kmh NE 4.6 mph7.4 kmh 30.51 in1033.2 mb - 0.00 in0.0 mm 0.00 in0.0 mm
06:40 AM 26.0°F-3.3°C 19.2°F-7.1°C 75% 2.3 mph ENE3.7 kmh ENE 4.6 mph7.4 kmh 30.50 in1032.8 mb - 0.00 in0.0 mm 0.00 in0.0 mm
06:45 AM 26.0°F-3.3°C 19.2°F-7.1°C 75% 2.3 mph NE3.7 kmh NE 2.3 mph3.7 kmh 30.51 in1033.2 mb - 0.00 in0.0 mm 0.00 in0.0 mm
06:50 AM 26.1°F-3.3°C 19.5°F-6.9°C 76% Calm Calm 2.3 mph3.7 kmh 30.51 in1033.2 mb - 0.00 in0.0 mm 0.00 in0.0 mm
06:55 AM 26.0°F-3.3°C 18.9°F-7.3°C 74% Calm Calm -- 30.51 in1033.2 mb - 0.00 in0.0 mm 0.00 in0.0 mm
07:00 AM 26.0°F-3.3°C 18.5°F-7.5°C 73% Calm Calm 2.3 mph3.7 kmh 30.50 in1032.8 mb - 0.00 in0.0 mm 0.00 in0.0 mm
07:05 AM 26.1°F-3.3°C 18.9°F-7.3°C 74% 3.5 mph NE5.6 kmh NE 4.6 mph7.4 kmh 30.50 in1032.8 mb - 0.00 in0.0 mm 0.00 in0.0 mm
07:10 AM 26.2°F-3.2°C 19.0°F-7.2°C 74% 2.3 mph NE3.7 kmh NE 3.5 mph5.6 kmh 30.50 in1032.8 mb - 0.00 in0.0 mm 0.00 in0.0 mm
07:15 AM 26.2°F-3.2°C 19.4°F-7.0°C 75% Calm Calm 2.3 mph3.7 kmh 30.50 in1032.8 mb - 0.00 in0.0 mm 0.00 in0.0 mm
07:20 AM 26.1°F-3.3°C 19.3°F-7.1°C 75% 2.3 mph NE3.7 kmh NE 3.5 mph5.6 kmh 30.51 in1033.2 mb - 0.00 in0.0 mm 0.00 in0.0 mm
07:25 AM 26.1°F-3.3°C 18.9°F-7.3°C 74% Calm Calm -- 30.51 in1033.2 mb - 0.00 in0.0 mm 0.00 in0.0 mm
07:30 AM 26.1°F-3.3°C 18.6°F-7.4°C 73% Calm Calm -- 30.52 in1033.5 mb - 0.00 in0.0 mm 0.00 in0.0 mm
07:35 AM 26.1°F-3.3°C 18.6°F-7.4°C 73% 2.3 mph NE3.7 kmh NE 3.5 mph5.6 kmh 30.51 in1033.2 mb - 0.00 in0.0 mm 0.00 in0.0 mm
07:40 AM 26.2°F-3.2°C 19.0°F-7.2°C 74% 3.5 mph NE5.6 kmh NE 4.6 mph7.4 kmh 30.51 in1033.2 mb - 0.00 in0.0 mm 0.00 in0.0 mm
07:45 AM 26.2°F-3.2°C 19.4°F-7.0°C 75% 1.2 mph NE1.9 kmh NE 2.3 mph3.7 kmh 30.51 in1033.2 mb - 0.00 in0.0 mm 0.00 in0.0 mm
07:50 AM 26.3°F-3.2°C 19.1°F-7.2°C 74% Calm Calm -- 30.51 in1033.2 mb - 0.00 in0.0 mm 0.00 in0.0 mm
07:55 AM 26.2°F-3.2°C 19.0°F-7.2°C 74% 1.2 mph ENE1.9 kmh ENE 2.3 mph3.7 kmh 30.51 in1033.2 mb - 0.00 in0.0 mm 0.00 in0.0 mm
08:00 AM 26.3°F-3.2°C 19.2°F-7.1°C 74% 2.3 mph ENE3.7 kmh ENE 3.5 mph5.6 kmh 30.51 in1033.2 mb - 0.00 in0.0 mm 0.00 in0.0 mm
08:05 AM 26.5°F-3.1°C 19.0°F-7.2°C 73% Calm Calm -- 30.51 in1033.2 mb - 0.00 in0.0 mm 0.00 in0.0 mm
08:10 AM 26.5°F-3.1°C 19.0°F-7.2°C 73% Calm Calm 1.2 mph1.9 kmh 30.52 in1033.5 mb - 0.00 in0.0 mm 0.00 in0.0 mm
08:15 AM 26.5°F-3.1°C 18.7°F-7.4°C 72% 1.2 mph ENE1.9 kmh ENE 2.3 mph3.7 kmh 30.52 in1033.5 mb - 0.00 in0.0 mm 0.00 in0.0 mm
08:20 AM 26.5°F-3.1°C 18.4°F-7.6°C 71% 1.2 mph ENE1.9 kmh ENE 3.5 mph5.6 kmh 30.51 in1033.2 mb - 0.00 in0.0 mm 0.00 in0.0 mm
08:25 AM 26.5°F-3.1°C 18.4°F-7.6°C 71% 2.3 mph ENE3.7 kmh ENE 3.5 mph5.6 kmh 30.51 in1033.2 mb - 0.00 in0.0 mm 0.00 in0.0 mm
08:30 AM 26.5°F-3.1°C 18.4°F-7.6°C 71% 1.2 mph ENE1.9 kmh ENE 4.6 mph7.4 kmh 30.51 in1033.2 mb - 0.00 in0.0 mm 0.00 in0.0 mm
08:35 AM 26.6°F-3.0°C 18.8°F-7.3°C 72% 2.3 mph ENE3.7 kmh ENE 3.5 mph5.6 kmh 30.52 in1033.5 mb - 0.00 in0.0 mm 0.00 in0.0 mm
08:40 AM 26.6°F-3.0°C 18.5°F-7.5°C 71% 1.2 mph ENE1.9 kmh ENE -- 30.52 in1033.5 mb - 0.00 in0.0 mm 0.00 in0.0 mm
08:45 AM 26.7°F-2.9°C 19.5°F-6.9°C 74% 1.2 mph ENE1.9 kmh ENE 2.3 mph3.7 kmh 30.54 in1034.2 mb - 0.00 in0.0 mm 0.00 in0.0 mm
08:50 AM 26.8°F-2.9°C 19.0°F-7.2°C 72% Calm Calm -- 30.55 in1034.5 mb - 0.00 in0.0 mm 0.00 in0.0 mm
08:55 AM 27.0°F-2.8°C 18.5°F-7.5°C 70% Calm Calm -- 30.55 in1034.5 mb - 0.00 in0.0 mm 0.00 in0.0 mm
09:00 AM 27.0°F-2.8°C 18.2°F-7.7°C 69% Calm Calm -- 30.55 in1034.5 mb - 0.00 in0.0 mm 0.00 in0.0 mm
09:05 AM 27.0°F-2.8°C 18.2°F-7.7°C 69% Calm Calm -- 30.54 in1034.2 mb - 0.00 in0.0 mm 0.00 in0.0 mm
09:10 AM 27.0°F-2.8°C 18.5°F-7.5°C 70% Calm Calm -- 30.54 in1034.2 mb - 0.00 in0.0 mm 0.00 in0.0 mm
09:15 AM 27.1°F-2.7°C 17.6°F-8.0°C 67% Calm Calm -- 30.54 in1034.2 mb - 0.00 in0.0 mm 0.00 in0.0 mm
09:20 AM 27.2°F-2.7°C 17.7°F-7.9°C 67% Calm Calm -- 30.54 in1034.2 mb - 0.00 in0.0 mm 0.00 in0.0 mm
09:30 AM 27.3°F-2.6°C 17.8°F-7.9°C 67% 1.2 mph ENE1.9 kmh ENE 4.6 mph7.4 kmh 30.53 in1033.9 mb - 0.00 in0.0 mm 0.00 in0.0 mm
09:35 AM 27.4°F-2.6°C 17.9°F-7.8°C 67% 3.5 mph ENE5.6 kmh ENE 3.5 mph5.6 kmh 30.53 in1033.9 mb - 0.00 in0.0 mm 0.00 in0.0 mm
09:40 AM 27.4°F-2.6°C 17.5°F-8.1°C 66% Calm Calm -- 30.53 in1033.9 mb - 0.00 in0.0 mm 0.00 in0.0 mm
09:45 AM 27.4°F-2.6°C 17.9°F-7.8°C 67% 1.2 mph ENE1.9 kmh ENE 3.5 mph5.6 kmh 30.54 in1034.2 mb - 0.00 in0.0 mm 0.00 in0.0 mm
09:50 AM 27.4°F-2.6°C 17.5°F-8.1°C 66% Calm Calm 2.3 mph3.7 kmh 30.54 in1034.2 mb - 0.00 in0.0 mm 0.00 in0.0 mm
09:55 AM 27.3°F-2.6°C 17.4°F-8.1°C 66% Calm Calm -- 30.54 in1034.2 mb - 0.00 in0.0 mm 0.00 in0.0 mm
10:00 AM 27.3°F-2.6°C 17.8°F-7.9°C 67% Calm Calm -- 30.53 in1033.9 mb - 0.00 in0.0 mm 0.00 in0.0 mm
10:05 AM 27.4°F-2.6°C 18.2°F-7.7°C 68% Calm Calm 1.2 mph1.9 kmh 30.53 in1033.9 mb - 0.00 in0.0 mm 0.00 in0.0 mm
10:10 AM 27.3°F-2.6°C 18.1°F-7.7°C 68% Calm Calm 3.5 mph5.6 kmh 30.53 in1033.9 mb - 0.00 in0.0 mm 0.00 in0.0 mm
10:15 AM 27.1°F-2.7°C 18.6°F-7.4°C 70% Calm Calm 2.3 mph3.7 kmh 30.53 in1033.9 mb - 0.00 in0.0 mm 0.00 in0.0 mm
10:20 AM 26.8°F-2.9°C 19.3°F-7.1°C 73% 1.2 mph SE1.9 kmh SE 2.3 mph3.7 kmh 30.53 in1033.9 mb - 0.00 in0.0 mm 0.00 in0.0 mm
10:25 AM 26.4°F-3.1°C 19.8°F-6.8°C 76% 3.5 mph ENE5.6 kmh ENE 3.5 mph5.6 kmh 30.53 in1033.9 mb - 0.00 in0.0 mm 0.00 in0.0 mm
10:30 AM 26.1°F-3.3°C 20.5°F-6.4°C 79% Calm Calm -- 30.53 in1033.9 mb - 0.00 in0.0 mm 0.00 in0.0 mm
10:35 AM 25.9°F-3.4°C 20.9°F-6.2°C 81% Calm Calm -- 30.53 in1033.9 mb - 0.00 in0.0 mm 0.00 in0.0 mm
10:40 AM 25.7°F-3.5°C 21.0°F-6.1°C 82% Calm Calm -- 30.53 in1033.9 mb - 0.00 in0.0 mm 0.00 in0.0 mm
10:45 AM 25.6°F-3.6°C 21.5°F-5.8°C 84% 1.2 mph E1.9 kmh E 3.5 mph5.6 kmh 30.54 in1034.2 mb - 0.00 in0.0 mm 0.00 in0.0 mm
10:50 AM 25.4°F-3.7°C 21.5°F-5.8°C 85% 3.5 mph E5.6 kmh E 5.8 mph9.3 kmh 30.53 in1033.9 mb - 0.00 in0.0 mm 0.00 in0.0 mm
10:55 AM 25.0°F-3.9°C 21.4°F-5.9°C 86% 3.5 mph E5.6 kmh E 4.6 mph7.4 kmh 30.53 in1033.9 mb - 0.00 in0.0 mm 0.00 in0.0 mm
11:00 AM 24.7°F-4.1°C 21.7°F-5.7°C 88% 2.3 mph E3.7 kmh E 2.3 mph3.7 kmh 30.53 in1033.9 mb - 0.00 in0.0 mm 0.00 in0.0 mm
11:05 AM 24.5°F-4.2°C 21.7°F-5.7°C 89% Calm Calm 1.2 mph1.9 kmh 30.52 in1033.5 mb - 0.00 in0.0 mm 0.00 in0.0 mm
11:10 AM 24.4°F-4.2°C 21.6°F-5.8°C 89% 1.2 mph ESE1.9 kmh ESE 2.3 mph3.7 kmh 30.52 in1033.5 mb - 0.00 in0.0 mm 0.00 in0.0 mm
11:15 AM 24.3°F-4.3°C 21.8°F-5.7°C 90% Calm Calm 3.5 mph5.6 kmh 30.52 in1033.5 mb - 0.00 in0.0 mm 0.00 in0.0 mm
11:20 AM 24.3°F-4.3°C 21.8°F-5.7°C 90% Calm Calm 3.5 mph5.6 kmh 30.52 in1033.5 mb - 0.00 in0.0 mm 0.00 in0.0 mm
11:25 AM 24.3°F-4.3°C 21.8°F-5.7°C 90% 1.2 mph ESE1.9 kmh ESE 2.3 mph3.7 kmh 30.52 in1033.5 mb - 0.00 in0.0 mm 0.00 in0.0 mm
11:30 AM 24.3°F-4.3°C 22.1°F-5.5°C 91% 1.2 mph ESE1.9 kmh ESE 3.5 mph5.6 kmh 30.52 in1033.5 mb - 0.00 in0.0 mm 0.00 in0.0 mm
11:35 AM 24.4°F-4.2°C 22.2°F-5.4°C 91% 1.2 mph E1.9 kmh E 3.5 mph5.6 kmh 30.52 in1033.5 mb - 0.00 in0.0 mm 0.00 in0.0 mm
11:40 AM 24.4°F-4.2°C 22.2°F-5.4°C 91% 2.3 mph E3.7 kmh E 3.5 mph5.6 kmh 30.52 in1033.5 mb - 0.00 in0.0 mm 0.00 in0.0 mm
11:45 AM 24.4°F-4.2°C 22.4°F-5.3°C 92% 3.5 mph NE5.6 kmh NE 5.8 mph9.3 kmh 30.51 in1033.2 mb - 0.00 in0.0 mm 0.00 in0.0 mm
11:50 AM 24.4°F-4.2°C 22.4°F-5.3°C 92% 4.6 mph ENE7.4 kmh ENE 5.8 mph9.3 kmh 30.51 in1033.2 mb - 0.00 in0.0 mm 0.00 in0.0 mm
11:55 AM 24.5°F-4.2°C 22.5°F-5.3°C 92% 2.3 mph ENE3.7 kmh ENE 2.3 mph3.7 kmh 30.51 in1033.2 mb - 0.00 in0.0 mm 0.00 in0.0 mm
12:00 PM 24.4°F-4.2°C 22.4°F-5.3°C 92% Calm Calm -- 30.49 in1032.5 mb - 0.00 in0.0 mm 0.00 in0.0 mm
12:05 PM 24.5°F-4.2°C 22.8°F-5.1°C 93% 3.5 mph ENE5.6 kmh ENE 6.9 mph11.1 kmh 30.47 in1031.8 mb - 0.00 in0.0 mm 0.00 in0.0 mm
12:10 PM 24.5°F-4.2°C 22.8°F-5.1°C 93% 3.5 mph ENE5.6 kmh ENE 5.8 mph9.3 kmh 30.49 in1032.5 mb - 0.00 in0.0 mm 0.00 in0.0 mm
12:15 PM 24.6°F-4.1°C 22.8°F-5.1°C 93% 5.8 mph NE9.3 kmh NE 8.1 mph13.0 kmh 30.48 in1032.2 mb - 0.00 in0.0 mm 0.00 in0.0 mm
12:20 PM 24.6°F-4.1°C 22.9°F-5.1°C 93% 3.5 mph ENE5.6 kmh ENE 4.6 mph7.4 kmh 30.48 in1032.2 mb - 0.00 in0.0 mm 0.00 in0.0 mm
12:25 PM 24.6°F-4.1°C 22.8°F-5.1°C 93% 3.5 mph ENE5.6 kmh ENE 9.2 mph14.8 kmh 30.47 in1031.8 mb - 0.00 in0.0 mm 0.00 in0.0 mm
12:30 PM 24.6°F-4.1°C 22.9°F-5.1°C 93% 2.3 mph ENE3.7 kmh ENE 5.8 mph9.3 kmh 30.47 in1031.8 mb - 0.00 in0.0 mm 0.00 in0.0 mm
12:35 PM 24.5°F-4.2°C 23.0°F-5.0°C 94% 3.5 mph ENE5.6 kmh ENE 6.9 mph11.1 kmh 30.47 in1031.8 mb - 0.00 in0.0 mm 0.00 in0.0 mm
12:40 PM 24.6°F-4.1°C 23.1°F-4.9°C 94% 5.8 mph NE9.3 kmh NE 6.9 mph11.1 kmh 30.47 in1031.8 mb - 0.00 in0.0 mm 0.00 in0.0 mm
12:45 PM 24.7°F-4.1°C 23.2°F-4.9°C 94% 4.6 mph E7.4 kmh E 5.8 mph9.3 kmh 30.46 in1031.5 mb - 0.00 in0.0 mm 0.00 in0.0 mm
12:50 PM 24.8°F-4.0°C 23.3°F-4.8°C 94% 6.9 mph ENE11.1 kmh ENE 11.5 mph18.5 kmh 30.46 in1031.5 mb - 0.00 in0.0 mm 0.00 in0.0 mm
12:55 PM 24.8°F-4.0°C 23.3°F-4.8°C 94% 3.5 mph E5.6 kmh E 4.6 mph7.4 kmh 30.45 in1031.2 mb - 0.00 in0.0 mm 0.00 in0.0 mm
01:00 PM 24.9°F-3.9°C 23.4°F-4.8°C 94% 2.3 mph NE3.7 kmh NE 4.6 mph7.4 kmh 30.45 in1031.2 mb - 0.00 in0.0 mm 0.00 in0.0 mm
01:05 PM 25.1°F-3.8°C 23.6°F-4.7°C 94% 2.3 mph NE3.7 kmh NE 4.6 mph7.4 kmh 30.45 in1031.2 mb - 0.00 in0.0 mm 0.00 in0.0 mm
01:10 PM 25.1°F-3.8°C 23.6°F-4.7°C 94% 3.5 mph E5.6 kmh E 5.8 mph9.3 kmh 30.44 in1030.8 mb - 0.00 in0.0 mm 0.00 in0.0 mm
01:15 PM 25.1°F-3.8°C 23.6°F-4.7°C 94% 2.3 mph ESE3.7 kmh ESE 4.6 mph7.4 kmh 30.44 in1030.8 mb - 0.00 in0.0 mm 0.00 in0.0 mm
01:20 PM 25.1°F-3.8°C 23.4°F-4.8°C 93% Calm Calm -- 30.44 in1030.8 mb - 0.00 in0.0 mm 0.00 in0.0 mm
01:25 PM 25.3°F-3.7°C 23.6°F-4.7°C 93% 1.2 mph ENE1.9 kmh ENE 3.5 mph5.6 kmh 30.44 in1030.8 mb - 0.00 in0.0 mm 0.00 in0.0 mm
01:30 PM 25.3°F-3.7°C 23.6°F-4.7°C 93% 2.3 mph E3.7 kmh E 4.6 mph7.4 kmh 30.43 in1030.5 mb - 0.00 in0.0 mm 0.00 in0.0 mm
01:35 PM 25.2°F-3.8°C 23.5°F-4.7°C 93% 2.3 mph ENE3.7 kmh ENE 4.6 mph7.4 kmh 30.43 in1030.5 mb - 0.00 in0.0 mm 0.00 in0.0 mm
01:40 PM 25.3°F-3.7°C 23.6°F-4.7°C 93% 3.5 mph E5.6 kmh E 4.6 mph7.4 kmh 30.42 in1030.1 mb - 0.00 in0.0 mm 0.00 in0.0 mm
01:45 PM 25.4°F-3.7°C 23.7°F-4.6°C 93% Calm Calm -- 30.41 in1029.8 mb - 0.00 in0.0 mm 0.00 in0.0 mm
01:50 PM 25.7°F-3.5°C 23.9°F-4.5°C 93% Calm Calm -- 30.41 in1029.8 mb - 0.00 in0.0 mm 0.00 in0.0 mm
01:55 PM 25.8°F-3.4°C 24.1°F-4.4°C 93% 3.5 mph E5.6 kmh E 4.6 mph7.4 kmh 30.40 in1029.5 mb - 0.00 in0.0 mm 0.00 in0.0 mm
02:00 PM 25.8°F-3.4°C 24.1°F-4.4°C 93% Calm Calm -- 30.40 in1029.5 mb - 0.00 in0.0 mm 0.00 in0.0 mm
02:05 PM 25.8°F-3.4°C 24.1°F-4.4°C 93% Calm Calm -- 30.40 in1029.5 mb - 0.00 in0.0 mm 0.00 in0.0 mm
02:10 PM 26.0°F-3.3°C 24.3°F-4.3°C 93% 1.2 mph SE1.9 kmh SE 10.4 mph16.7 kmh 30.40 in1029.5 mb - 0.00 in0.0 mm 0.00 in0.0 mm
02:15 PM 26.1°F-3.3°C 24.3°F-4.3°C 93% 2.3 mph SE3.7 kmh SE 4.6 mph7.4 kmh 30.39 in1029.1 mb - 0.00 in0.0 mm 0.00 in0.0 mm
02:20 PM 26.1°F-3.3°C 24.4°F-4.2°C 93% 1.2 mph SE1.9 kmh SE 2.3 mph3.7 kmh 30.40 in1029.5 mb - 0.00 in0.0 mm 0.00 in0.0 mm
02:25 PM 26.2°F-3.2°C 24.5°F-4.2°C 93% Calm Calm 2.3 mph3.7 kmh 30.40 in1029.5 mb - 0.00 in0.0 mm 0.00 in0.0 mm
02:30 PM 26.2°F-3.2°C 24.2°F-4.3°C 92% Calm Calm -- 30.39 in1029.1 mb - 0.00 in0.0 mm 0.00 in0.0 mm
02:35 PM 26.2°F-3.2°C 24.2°F-4.3°C 92% 2.3 mph S3.7 kmh S 2.3 mph3.7 kmh 30.39 in1029.1 mb - 0.00 in0.0 mm 0.00 in0.0 mm
02:40 PM 26.3°F-3.2°C 24.3°F-4.3°C 92% Calm Calm -- 30.38 in1028.8 mb - 0.00 in0.0 mm 0.00 in0.0 mm
02:45 PM 26.3°F-3.2°C 24.3°F-4.3°C 92% 1.2 mph SE1.9 kmh SE 2.3 mph3.7 kmh 30.38 in1028.8 mb - 0.01 in0.3 mm 0.01 in0.3 mm
02:50 PM 26.2°F-3.2°C 24.2°F-4.3°C 92% 2.3 mph ESE3.7 kmh ESE 3.5 mph5.6 kmh 30.39 in1029.1 mb - 0.00 in0.0 mm 0.01 in0.3 mm
02:55 PM 26.1°F-3.3°C 24.1°F-4.4°C 92% Calm Calm -- 30.39 in1029.1 mb - 0.00 in0.0 mm 0.01 in0.3 mm
03:00 PM 26.2°F-3.2°C 24.5°F-4.2°C 93% 1.2 mph E1.9 kmh E 3.5 mph5.6 kmh 30.38 in1028.8 mb - 0.00 in0.0 mm 0.01 in0.3 mm
03:05 PM 26.1°F-3.3°C 24.4°F-4.2°C 93% 1.2 mph NE1.9 kmh NE -- 30.38 in1028.8 mb - 0.00 in0.0 mm 0.01 in0.3 mm
03:10 PM 26.2°F-3.2°C 24.5°F-4.2°C 93% 2.3 mph ENE3.7 kmh ENE 3.5 mph5.6 kmh 30.38 in1028.8 mb - 0.00 in0.0 mm 0.01 in0.3 mm
03:15 PM 26.2°F-3.2°C 24.5°F-4.2°C 93% 5.8 mph ENE9.3 kmh ENE 6.9 mph11.1 kmh 30.37 in1028.4 mb - 0.00 in0.0 mm 0.01 in0.3 mm
03:20 PM 26.1°F-3.3°C 24.4°F-4.2°C 93% 4.6 mph ENE7.4 kmh ENE 6.9 mph11.1 kmh 30.36 in1028.1 mb - 0.00 in0.0 mm 0.01 in0.3 mm
03:25 PM 26.1°F-3.3°C 24.6°F-4.1°C 94% 4.6 mph NE7.4 kmh NE 5.8 mph9.3 kmh 30.36 in1028.1 mb - 0.00 in0.0 mm 0.01 in0.3 mm
03:30 PM 26.2°F-3.2°C 24.7°F-4.1°C 94% 2.3 mph ENE3.7 kmh ENE 3.5 mph5.6 kmh 30.36 in1028.1 mb - 0.00 in0.0 mm 0.01 in0.3 mm
03:35 PM 26.2°F-3.2°C 24.7°F-4.1°C 94% 3.5 mph ENE5.6 kmh ENE 3.5 mph5.6 kmh 30.36 in1028.1 mb - 0.00 in0.0 mm 0.01 in0.3 mm
03:40 PM 26.2°F-3.2°C 24.7°F-4.1°C 94% 1.2 mph NE1.9 kmh NE 2.3 mph3.7 kmh 30.37 in1028.4 mb - 0.00 in0.0 mm 0.01 in0.3 mm
03:45 PM 26.2°F-3.2°C 24.7°F-4.1°C 94% 3.5 mph NE5.6 kmh NE 5.8 mph9.3 kmh 30.36 in1028.1 mb - 0.00 in0.0 mm 0.01 in0.3 mm
03:50 PM 26.1°F-3.3°C 24.6°F-4.1°C 94% 2.3 mph NE3.7 kmh NE 3.5 mph5.6 kmh 30.36 in1028.1 mb - 0.00 in0.0 mm 0.01 in0.3 mm
03:55 PM 26.1°F-3.3°C 24.6°F-4.1°C 94% 1.2 mph NE1.9 kmh NE 3.5 mph5.6 kmh 30.36 in1028.1 mb - 0.00 in0.0 mm 0.01 in0.3 mm
04:00 PM 26.2°F-3.2°C 24.7°F-4.1°C 94% 2.3 mph NE3.7 kmh NE 5.8 mph9.3 kmh 30.35 in1027.8 mb - 0.01 in0.3 mm 0.02 in0.5 mm
04:05 PM 26.2°F-3.2°C 24.7°F-4.1°C 94% 4.6 mph NE7.4 kmh NE 5.8 mph9.3 kmh 30.35 in1027.8 mb - 0.00 in0.0 mm 0.02 in0.5 mm
04:10 PM 26.2°F-3.2°C 25.0°F-3.9°C 95% 4.6 mph NE7.4 kmh NE 4.6 mph7.4 kmh 30.34 in1027.4 mb - 0.00 in0.0 mm 0.02 in0.5 mm
04:15 PM 26.2°F-3.2°C 24.7°F-4.1°C 94% 4.6 mph NE7.4 kmh NE 4.6 mph7.4 kmh 30.34 in1027.4 mb - 0.00 in0.0 mm 0.02 in0.5 mm
04:20 PM 26.3°F-3.2°C 25.0°F-3.9°C 95% 4.6 mph NE7.4 kmh NE 5.8 mph9.3 kmh 30.34 in1027.4 mb - 0.00 in0.0 mm 0.02 in0.5 mm
04:25 PM 26.3°F-3.2°C 25.1°F-3.8°C 95% 4.6 mph NE7.4 kmh NE 4.6 mph7.4 kmh 30.34 in1027.4 mb - 0.00 in0.0 mm 0.02 in0.5 mm
04:30 PM 26.3°F-3.2°C 25.1°F-3.8°C 95% 3.5 mph ENE5.6 kmh ENE 3.5 mph5.6 kmh 30.34 in1027.4 mb - 0.00 in0.0 mm 0.02 in0.5 mm
04:35 PM 26.3°F-3.2°C 25.1°F-3.8°C 95% 1.2 mph ENE1.9 kmh ENE 3.5 mph5.6 kmh 30.33 in1027.1 mb - 0.00 in0.0 mm 0.02 in0.5 mm
04:40 PM 26.5°F-3.1°C 25.3°F-3.7°C 95% Calm Calm 3.5 mph5.6 kmh 30.32 in1026.8 mb - 0.00 in0.0 mm 0.02 in0.5 mm
04:45 PM 26.7°F-2.9°C 25.4°F-3.7°C 95% 4.6 mph NE7.4 kmh NE 5.8 mph9.3 kmh 30.32 in1026.8 mb - 0.00 in0.0 mm 0.02 in0.5 mm
04:50 PM 26.6°F-3.0°C 25.4°F-3.7°C 95% 3.5 mph ENE5.6 kmh ENE 5.8 mph9.3 kmh 30.32 in1026.8 mb - 0.00 in0.0 mm 0.02 in0.5 mm
04:55 PM 26.7°F-2.9°C 25.4°F-3.7°C 95% 2.3 mph ENE3.7 kmh ENE 3.5 mph5.6 kmh 30.32 in1026.8 mb - 0.00 in0.0 mm 0.02 in0.5 mm
05:00 PM 26.7°F-2.9°C 25.5°F-3.6°C 95% 2.3 mph ENE3.7 kmh ENE 4.6 mph7.4 kmh 30.32 in1026.8 mb - 0.00 in0.0 mm 0.02 in0.5 mm
05:05 PM 26.8°F-2.9°C 25.6°F-3.6°C 95% 1.2 mph ENE1.9 kmh ENE 1.2 mph1.9 kmh 30.32 in1026.8 mb - 0.00 in0.0 mm 0.02 in0.5 mm
05:10 PM 26.9°F-2.8°C 25.7°F-3.5°C 95% 3.5 mph ENE5.6 kmh ENE 3.5 mph5.6 kmh 30.32 in1026.8 mb - 0.00 in0.0 mm 0.02 in0.5 mm
05:15 PM 26.9°F-2.8°C 25.7°F-3.5°C 95% Calm Calm -- 30.31 in1026.4 mb - 0.00 in0.0 mm 0.02 in0.5 mm
05:20 PM 27.0°F-2.8°C 25.8°F-3.4°C 95% 3.5 mph E5.6 kmh E 5.8 mph9.3 kmh 30.32 in1026.8 mb - 0.00 in0.0 mm 0.02 in0.5 mm
05:25 PM 27.0°F-2.8°C 25.8°F-3.4°C 95% 2.3 mph ENE3.7 kmh ENE 4.6 mph7.4 kmh 30.32 in1026.8 mb - 0.00 in0.0 mm 0.02 in0.5 mm
05:30 PM 27.1°F-2.7°C 25.8°F-3.4°C 95% 3.5 mph ENE5.6 kmh ENE 4.6 mph7.4 kmh 30.32 in1026.8 mb - 0.00 in0.0 mm 0.02 in0.5 mm
05:35 PM 27.2°F-2.7°C 26.0°F-3.3°C 95% 1.2 mph ENE1.9 kmh ENE 2.3 mph3.7 kmh 30.31 in1026.4 mb - 0.00 in0.0 mm 0.02 in0.5 mm
05:40 PM 27.2°F-2.7°C 26.0°F-3.3°C 95% Calm Calm -- 30.30 in1026.1 mb - 0.00 in0.0 mm 0.02 in0.5 mm
05:45 PM 27.3°F-2.6°C 26.1°F-3.3°C 95% 3.5 mph ENE5.6 kmh ENE 4.6 mph7.4 kmh 30.30 in1026.1 mb - 0.00 in0.0 mm 0.02 in0.5 mm
05:50 PM 27.4°F-2.6°C 26.4°F-3.1°C 96% Calm Calm 2.3 mph3.7 kmh 30.30 in1026.1 mb - 0.00 in0.0 mm 0.02 in0.5 mm
05:55 PM 27.5°F-2.5°C 26.5°F-3.1°C 96% 1.2 mph E1.9 kmh E 2.3 mph3.7 kmh 30.30 in1026.1 mb - 0.00 in0.0 mm 0.02 in0.5 mm
06:00 PM 27.6°F-2.4°C 26.6°F-3.0°C 96% Calm Calm -- 30.30 in1026.1 mb - 0.00 in0.0 mm 0.02 in0.5 mm
06:05 PM 27.7°F-2.4°C 26.7°F-2.9°C 96% Calm Calm 2.3 mph3.7 kmh 30.29 in1025.7 mb - 0.00 in0.0 mm 0.02 in0.5 mm
06:10 PM 27.8°F-2.3°C 26.8°F-2.9°C 96% 2.3 mph E3.7 kmh E 2.3 mph3.7 kmh 30.29 in1025.7 mb - 0.00 in0.0 mm 0.02 in0.5 mm
06:15 PM 27.8°F-2.3°C 26.8°F-2.9°C 96% Calm Calm -- 30.29 in1025.7 mb - 0.00 in0.0 mm 0.02 in0.5 mm
06:20 PM 27.9°F-2.3°C 26.9°F-2.8°C 96% 1.2 mph E1.9 kmh E 2.3 mph3.7 kmh 30.27 in1025.1 mb - 0.00 in0.0 mm 0.02 in0.5 mm
06:25 PM 28.0°F-2.2°C 27.0°F-2.8°C 96% 1.2 mph NE1.9 kmh NE 2.3 mph3.7 kmh 30.28 in1025.4 mb - 0.00 in0.0 mm 0.02 in0.5 mm
06:30 PM 28.1°F-2.2°C 27.1°F-2.7°C 96% 1.2 mph ENE1.9 kmh ENE 3.5 mph5.6 kmh 30.27 in1025.1 mb - 0.00 in0.0 mm 0.02 in0.5 mm
06:35 PM 28.2°F-2.1°C 27.2°F-2.7°C 96% 3.5 mph E5.6 kmh E 4.6 mph7.4 kmh 30.27 in1025.1 mb - 0.00 in0.0 mm 0.02 in0.5 mm
06:40 PM 28.2°F-2.1°C 27.2°F-2.7°C 96% 2.3 mph E3.7 kmh E 3.5 mph5.6 kmh 30.27 in1025.1 mb - 0.00 in0.0 mm 0.02 in0.5 mm
06:45 PM 28.2°F-2.1°C 27.2°F-2.7°C 96% 1.2 mph E1.9 kmh E 4.6 mph7.4 kmh 30.27 in1025.1 mb - 0.00 in0.0 mm 0.02 in0.5 mm
06:50 PM 28.3°F-2.1°C 27.3°F-2.6°C 96% Calm Calm -- 30.27 in1025.1 mb - 0.00 in0.0 mm 0.02 in0.5 mm
06:55 PM 28.4°F-2.0°C 27.4°F-2.6°C 96% 1.2 mph ENE1.9 kmh ENE 2.3 mph3.7 kmh 30.26 in1024.7 mb - 0.00 in0.0 mm 0.02 in0.5 mm
07:00 PM 28.4°F-2.0°C 27.4°F-2.6°C 96% Calm Calm -- 30.26 in1024.7 mb - 0.00 in0.0 mm 0.02 in0.5 mm
07:05 PM 28.5°F-1.9°C 27.5°F-2.5°C 96% 1.2 mph ENE1.9 kmh ENE 2.3 mph3.7 kmh 30.26 in1024.7 mb - 0.00 in0.0 mm 0.02 in0.5 mm
07:10 PM 28.5°F-1.9°C 27.5°F-2.5°C 96% 1.2 mph ENE1.9 kmh ENE 3.5 mph5.6 kmh 30.25 in1024.4 mb - 0.00 in0.0 mm 0.02 in0.5 mm
07:15 PM 28.7°F-1.8°C 27.7°F-2.4°C 96% Calm Calm -- 30.25 in1024.4 mb - 0.00 in0.0 mm 0.02 in0.5 mm
07:20 PM 28.7°F-1.8°C 27.7°F-2.4°C 96% Calm Calm 3.5 mph5.6 kmh 30.25 in1024.4 mb - 0.00 in0.0 mm 0.02 in0.5 mm
07:25 PM 28.8°F-1.8°C 27.8°F-2.3°C 96% 1.2 mph E1.9 kmh E 2.3 mph3.7 kmh 30.25 in1024.4 mb - 0.00 in0.0 mm 0.02 in0.5 mm
07:30 PM 28.8°F-1.8°C 27.8°F-2.3°C 96% 1.2 mph ENE1.9 kmh ENE 4.6 mph7.4 kmh 30.25 in1024.4 mb - 0.00 in0.0 mm 0.02 in0.5 mm
07:35 PM 29.0°F-1.7°C 28.0°F-2.2°C 96% Calm Calm -- 30.25 in1024.4 mb - 0.00 in0.0 mm 0.02 in0.5 mm
07:40 PM 29.0°F-1.7°C 28.0°F-2.2°C 96% 1.2 mph NE1.9 kmh NE 2.3 mph3.7 kmh 30.25 in1024.4 mb - 0.00 in0.0 mm 0.02 in0.5 mm
07:45 PM 29.1°F-1.6°C 28.1°F-2.2°C 96% Calm Calm -- 30.25 in1024.4 mb - 0.00 in0.0 mm 0.02 in0.5 mm
07:50 PM 29.1°F-1.6°C 28.1°F-2.2°C 96% 1.2 mph NE1.9 kmh NE 1.2 mph1.9 kmh 30.25 in1024.4 mb - 0.00 in0.0 mm 0.02 in0.5 mm
07:55 PM 29.1°F-1.6°C 28.1°F-2.2°C 96% Calm Calm -- 30.25 in1024.4 mb - 0.00 in0.0 mm 0.02 in0.5 mm
08:00 PM 29.2°F-1.6°C 28.2°F-2.1°C 96% Calm Calm -- 30.25 in1024.4 mb - 0.00 in0.0 mm 0.02 in0.5 mm
08:05 PM 29.3°F-1.5°C 28.3°F-2.1°C 96% Calm Calm 3.5 mph5.6 kmh 30.25 in1024.4 mb - 0.00 in0.0 mm 0.02 in0.5 mm
08:10 PM 29.3°F-1.5°C 28.3°F-2.1°C 96% Calm Calm -- 30.25 in1024.4 mb - 0.00 in0.0 mm 0.02 in0.5 mm
08:15 PM 29.4°F-1.4°C 28.4°F-2.0°C 96% 2.3 mph ENE3.7 kmh ENE 3.5 mph5.6 kmh 30.25 in1024.4 mb - 0.00 in0.0 mm 0.02 in0.5 mm
08:20 PM 29.4°F-1.4°C 28.4°F-2.0°C 96% Calm Calm 1.2 mph1.9 kmh 30.23 in1023.7 mb - 0.00 in0.0 mm 0.02 in0.5 mm
08:25 PM 29.4°F-1.4°C 28.4°F-2.0°C 96% Calm Calm -- 30.23 in1023.7 mb - 0.00 in0.0 mm 0.02 in0.5 mm
08:30 PM 29.4°F-1.4°C 28.4°F-2.0°C 96% Calm Calm 2.3 mph3.7 kmh 30.23 in1023.7 mb - 0.00 in0.0 mm 0.02 in0.5 mm
08:35 PM 29.6°F-1.3°C 28.6°F-1.9°C 96% Calm Calm -- 30.23 in1023.7 mb - 0.00 in0.0 mm 0.02 in0.5 mm
08:40 PM 29.6°F-1.3°C 28.6°F-1.9°C 96% Calm Calm -- 30.23 in1023.7 mb - 0.00 in0.0 mm 0.02 in0.5 mm
08:45 PM 29.7°F-1.3°C 29.0°F-1.7°C 97% Calm Calm -- 30.23 in1023.7 mb - 0.00 in0.0 mm 0.02 in0.5 mm
08:50 PM 29.7°F-1.3°C 29.0°F-1.7°C 97% Calm Calm -- 30.22 in1023.4 mb - 0.00 in0.0 mm 0.02 in0.5 mm
08:55 PM 29.8°F-1.2°C 29.1°F-1.6°C 97% Calm Calm -- 30.22 in1023.4 mb - 0.00 in0.0 mm 0.02 in0.5 mm
09:00 PM 29.9°F-1.2°C 29.1°F-1.6°C 97% Calm Calm -- 30.21 in1023.0 mb - 0.00 in0.0 mm 0.02 in0.5 mm
09:05 PM 29.9°F-1.2°C 29.2°F-1.6°C 97% Calm Calm -- 30.21 in1023.0 mb - 0.00 in0.0 mm 0.02 in0.5 mm
09:10 PM 30.1°F-1.1°C 29.3°F-1.5°C 97% Calm Calm -- 30.20 in1022.7 mb - 0.00 in0.0 mm 0.02 in0.5 mm
09:15 PM 30.1°F-1.1°C 29.4°F-1.4°C 97% Calm Calm 2.3 mph3.7 kmh 30.20 in1022.7 mb - 0.00 in0.0 mm 0.02 in0.5 mm
09:20 PM 30.3°F-0.9°C 29.6°F-1.3°C 97% Calm Calm 2.3 mph3.7 kmh 30.19 in1022.4 mb - 0.00 in0.0 mm 0.02 in0.5 mm
09:25 PM 30.5°F-0.8°C 29.8°F-1.2°C 97% 1.2 mph E1.9 kmh E 2.3 mph3.7 kmh 30.18 in1022.0 mb - 0.00 in0.0 mm 0.02 in0.5 mm
09:30 PM 30.7°F-0.7°C 30.0°F-1.1°C 97% 1.2 mph ENE1.9 kmh ENE 3.5 mph5.6 kmh 30.18 in1022.0 mb - 0.00 in0.0 mm 0.02 in0.5 mm
09:35 PM 30.8°F-0.7°C 30.1°F-1.1°C 97% Calm Calm -- 30.17 in1021.7 mb - 0.00 in0.0 mm 0.02 in0.5 mm
09:40 PM 31.0°F-0.6°C 30.2°F-1.0°C 97% 1.2 mph E1.9 kmh E 3.5 mph5.6 kmh 30.16 in1021.3 mb - 0.00 in0.0 mm 0.02 in0.5 mm
09:45 PM 31.1°F-0.5°C 30.3°F-0.9°C 97% 1.2 mph ESE1.9 kmh ESE 5.8 mph9.3 kmh 30.15 in1021.0 mb - 0.00 in0.0 mm 0.02 in0.5 mm
09:50 PM 31.2°F-0.4°C 30.4°F-0.9°C 97% 2.3 mph ESE3.7 kmh ESE 3.5 mph5.6 kmh 30.15 in1021.0 mb - 0.00 in0.0 mm 0.02 in0.5 mm
09:55 PM 31.2°F-0.4°C 30.4°F-0.9°C 97% 1.2 mph ESE1.9 kmh ESE 2.3 mph3.7 kmh 30.14 in1020.7 mb - 0.00 in0.0 mm 0.02 in0.5 mm
10:00 PM 31.1°F-0.5°C 30.3°F-0.9°C 97% Calm Calm 2.3 mph3.7 kmh 30.14 in1020.7 mb - 0.00 in0.0 mm 0.02 in0.5 mm
10:05 PM 31.1°F-0.5°C 30.1°F-1.1°C 96% Calm Calm 1.2 mph1.9 kmh 30.13 in1020.3 mb - 0.00 in0.0 mm 0.02 in0.5 mm
10:10 PM 31.0°F-0.6°C 30.0°F-1.1°C 96% Calm Calm -- 30.13 in1020.3 mb - 0.00 in0.0 mm 0.02 in0.5 mm
10:15 PM 30.9°F-0.6°C 29.9°F-1.2°C 96% 2.3 mph ESE3.7 kmh ESE 3.5 mph5.6 kmh 30.12 in1020.0 mb - 0.00 in0.0 mm 0.02 in0.5 mm
10:20 PM 30.8°F-0.7°C 29.8°F-1.2°C 96% 1.2 mph ESE1.9 kmh ESE 3.5 mph5.6 kmh 30.11 in1019.6 mb - 0.00 in0.0 mm 0.02 in0.5 mm
10:25 PM 30.8°F-0.7°C 29.8°F-1.2°C 96% 1.2 mph ESE1.9 kmh ESE 3.5 mph5.6 kmh 30.11 in1019.6 mb - 0.00 in0.0 mm 0.02 in0.5 mm
10:30 PM 30.7°F-0.7°C 29.7°F-1.3°C 96% Calm Calm -- 30.11 in1019.6 mb - 0.00 in0.0 mm 0.02 in0.5 mm
10:35 PM 30.7°F-0.7°C 29.7°F-1.3°C 96% 2.3 mph ESE3.7 kmh ESE 4.6 mph7.4 kmh 30.12 in1020.0 mb - 0.00 in0.0 mm 0.02 in0.5 mm
10:40 PM 30.7°F-0.7°C 30.0°F-1.1°C 97% 2.3 mph ESE3.7 kmh ESE 3.5 mph5.6 kmh 30.11 in1019.6 mb - 0.00 in0.0 mm 0.02 in0.5 mm
10:45 PM 30.7°F-0.7°C 29.9°F-1.2°C 97% 1.2 mph ESE1.9 kmh ESE 2.3 mph3.7 kmh 30.10 in1019.3 mb - 0.00 in0.0 mm 0.02 in0.5 mm
10:50 PM 30.6°F-0.8°C 29.6°F-1.3°C 96% 5.8 mph ESE9.3 kmh ESE 5.8 mph9.3 kmh 30.09 in1019.0 mb - 0.00 in0.0 mm 0.02 in0.5 mm
10:55 PM 30.7°F-0.7°C 30.0°F-1.1°C 97% 4.6 mph ESE7.4 kmh ESE 5.8 mph9.3 kmh 30.12 in1020.0 mb - 0.00 in0.0 mm 0.02 in0.5 mm
11:00 PM 30.7°F-0.7°C 30.0°F-1.1°C 97% 2.3 mph ESE3.7 kmh ESE 3.5 mph5.6 kmh 30.14 in1020.7 mb - 0.00 in0.0 mm 0.02 in0.5 mm
11:05 PM 30.7°F-0.7°C 30.0°F-1.1°C 97% Calm Calm 1.2 mph1.9 kmh 30.14 in1020.7 mb - 0.00 in0.0 mm 0.02 in0.5 mm
11:10 PM 30.7°F-0.7°C 30.0°F-1.1°C 97% 2.3 mph ESE3.7 kmh ESE 3.5 mph5.6 kmh 30.13 in1020.3 mb - 0.00 in0.0 mm 0.02 in0.5 mm
11:15 PM 30.8°F-0.7°C 30.0°F-1.1°C 97% 2.3 mph ESE3.7 kmh ESE 3.5 mph5.6 kmh 30.11 in1019.6 mb - 0.00 in0.0 mm 0.02 in0.5 mm
11:20 PM 30.8°F-0.7°C 30.1°F-1.1°C 97% 2.3 mph ESE3.7 kmh ESE 5.8 mph9.3 kmh 30.11 in1019.6 mb - 0.00 in0.0 mm 0.02 in0.5 mm
11:25 PM 30.9°F-0.6°C 30.1°F-1.1°C 97% Calm Calm -- 30.10 in1019.3 mb - 0.00 in0.0 mm 0.02 in0.5 mm
11:30 PM 31.0°F-0.6°C 30.2°F-1.0°C 97% Calm Calm -- 30.10 in1019.3 mb - 0.00 in0.0 mm 0.02 in0.5 mm
11:35 PM 31.0°F-0.6°C 30.2°F-1.0°C 97% Calm Calm -- 30.10 in1019.3 mb - 0.00 in0.0 mm 0.02 in0.5 mm
11:40 PM 31.1°F-0.5°C 30.3°F-0.9°C 97% Calm Calm -- 30.11 in1019.6 mb - 0.00 in0.0 mm 0.02 in0.5 mm
11:45 PM 31.1°F-0.5°C 30.3°F-0.9°C 97% Calm Calm -- 30.08 in1018.6 mb - 0.00 in0.0 mm 0.02 in0.5 mm
11:50 PM 31.3°F-0.4°C 30.5°F-0.8°C 97% Calm Calm -- 30.07 in1018.3 mb - 0.00 in0.0 mm 0.02 in0.5 mm
11:55 PM 31.3°F-0.4°C 30.5°F-0.8°C 97% Calm Calm -- 30.07 in1018.3 mb - 0.00 in0.0 mm 0.02 in0.5 mm